Time;durP1;ratioP1;P1;durP2;ratioP2;P2;SDS_P1;SDS_P2;PMS_P1;PMS_P2;Temp;Humidity;BMP_temperature;BMP_pressure;BME280_temperature;BME280_humidity;BME280_pressure;Samples;Min_cycle;Max_cycle;Signal;HPM_P1;HPM_P2
2021/12/12 00:02:44;;;;;;;;;;;7.30;99.90;;;;;;5073290;28;19912;-59
2021/12/12 00:05:10;;;;;;;;;;;7.40;99.90;;;;;;5074691;28;19928;-59
2021/12/12 00:07:36;;;;;;;;;;;7.30;99.90;;;;;;5074259;28;20319;-59
2021/12/12 00:10:04;;;;;;;;;;;7.30;99.90;;;;;;5072793;28;19979;-58
2021/12/12 00:12:31;;;;;;;;;;;7.40;99.90;;;;;;5073450;28;19955;-59
2021/12/12 00:14:57;;;;;;;;;;;7.30;99.90;;;;;;5074239;28;20319;-60
2021/12/12 00:17:23;;;;;;;;;;;7.30;99.90;;;;;;5072828;28;19928;-59
2021/12/12 00:19:49;;;;;;;;;;;7.30;99.90;;;;;;5073005;28;19948;-59
2021/12/12 00:22:16;;;;;;;;;;;7.30;99.90;;;;;;5074436;28;19960;-60
2021/12/12 00:24:42;;;;;;;;;;;7.30;99.90;;;;;;5071866;28;19995;-58
2021/12/12 00:27:08;;;;;;;;;;;7.30;99.90;;;;;;5072640;28;20451;-58
2021/12/12 00:29:34;;;;;;;;;;;7.20;99.90;;;;;;5074174;28;20009;-59
2021/12/12 00:32:03;;;;;;;;;;;7.20;99.90;;;;;;5073773;28;19917;-59
2021/12/12 00:34:31;;;;;;;;;;;7.20;99.90;;;;;;5073926;28;19916;-59
2021/12/12 00:36:57;;;;;;;;;;;7.20;99.90;;;;;;5053323;28;20012;-59
2021/12/12 00:39:24;;;;;;;;;;;7.20;99.90;;;;;;5074124;28;20046;-58
2021/12/12 00:41:50;;;;;;;;;;;7.20;99.90;;;;;;5073277;28;20397;-60
2021/12/12 00:44:16;;;;;;;;;;;7.20;99.90;;;;;;5073586;28;19978;-59
2021/12/12 00:46:42;;;;;;;;;;;7.20;99.90;;;;;;5073517;28;20365;-59
2021/12/12 00:49:08;;;;;;;;;;;7.30;99.90;;;;;;5073136;28;19943;-60
2021/12/12 00:51:36;;;;;;;;;;;7.30;99.90;;;;;;5072089;28;19912;-60
2021/12/12 00:54:02;;;;;;;;;;;7.30;99.90;;;;;;5073215;28;19973;-60
2021/12/12 00:56:28;;;;;;;;;;;7.30;99.90;;;;;;5071671;28;19913;-59
2021/12/12 00:58:53;;;;;;;;;;;7.20;99.90;;;;;;5072791;28;19912;-60
2021/12/12 01:01:23;;;;;;;;;;;7.20;99.90;;;;;;5073470;28;20331;-60
2021/12/12 01:03:53;;;;;;;;;;;7.20;99.90;;;;;;5071461;28;19939;-61
2021/12/12 01:06:20;;;;;;;;;;;7.20;99.90;;;;;;5073018;28;19920;-59
2021/12/12 01:08:46;;;;;;;;;;;7.30;99.90;;;;;;5072881;28;19928;-59
2021/12/12 01:11:41;;;;;;;;;;;7.20;99.90;;;;;;5073073;28;19913;-60
2021/12/12 01:14:07;;;;;;;;;;;7.20;99.90;;;;;;5060084;28;20004;-59
2021/12/12 01:16:45;;;;;;;;;;;7.20;99.90;;;;;;5073164;28;19920;-58
2021/12/12 01:19:15;;;;;;;;;;;7.30;99.90;;;;;;5057057;28;19965;-58
2021/12/12 01:21:43;;;;;;;;;;;7.30;99.90;;;;;;5067361;28;19939;-58
2021/12/12 01:24:12;;;;;;;;;;;7.30;99.90;;;;;;5073711;28;19966;-60
2021/12/12 01:26:39;;;;;;;;;;;7.30;99.90;;;;;;5072439;28;19912;-58
2021/12/12 01:29:05;;;;;;;;;;;7.30;99.90;;;;;;5072982;28;20712;-58
2021/12/12 01:31:32;;;;;;;;;;;7.40;99.90;;;;;;5073034;28;19912;-60
2021/12/12 01:34:14;;;;;;;;;;;7.30;99.90;;;;;;5072074;28;19915;-59
2021/12/12 01:39:24;;;;;;;;;;;7.40;99.90;;;;;;5068756;28;19917;-59
2021/12/12 01:41:55;;;;;;;;;;;7.40;99.90;;;;;;5073035;28;19966;-59
2021/12/12 01:44:27;;;;;;;;;;;7.40;99.90;;;;;;5072981;28;19943;-56
2021/12/12 01:46:58;;;;;;;;;;;7.40;99.90;;;;;;5073134;28;19923;-59
2021/12/12 01:49:25;;;;;;;;;;;7.40;99.90;;;;;;5076870;28;19920;-58
2021/12/12 01:51:52;;;;;;;;;;;7.30;99.90;;;;;;5075419;28;19909;-58
2021/12/12 01:54:21;;;;;;;;;;;7.40;99.90;;;;;;5076603;28;19944;-57
2021/12/12 01:56:53;;;;;;;;;;;7.40;99.90;;;;;;5077145;28;19913;-60
2021/12/12 01:59:20;;;;;;;;;;;7.40;99.90;;;;;;5076741;28;19916;-58
2021/12/12 02:01:47;;;;;;;;;;;7.40;99.90;;;;;;5076885;28;19912;-60
2021/12/12 02:04:16;;;;;;;;;;;7.40;99.90;;;;;;5076616;28;19924;-57
2021/12/12 02:06:43;;;;;;;;;;;7.50;99.90;;;;;;5074252;28;19921;-59
2021/12/12 02:09:10;;;;;;;;;;;7.50;99.90;;;;;;5077036;28;19920;-60
2021/12/12 02:11:36;;;;;;;;;;;7.50;99.90;;;;;;5076678;28;19912;-57
2021/12/12 02:14:08;;;;;;;;;;;7.50;99.90;;;;;;5052753;28;20419;-60
2021/12/12 02:16:35;;;;;;;;;;;7.50;99.90;;;;;;5075575;28;19915;-62
2021/12/12 02:19:01;;;;;;;;;;;7.50;99.90;;;;;;5075073;28;19917;-59
2021/12/12 02:21:35;;;;;;;;;;;7.50;99.90;;;;;;5076079;28;19957;-60
2021/12/12 02:35:12;;;;;;;;;;;7.60;99.90;;;;;;5076418;28;19978;-60
2021/12/12 02:37:36;;;;;;;;;;;7.60;99.90;;;;;;5075240;28;19916;-59
2021/12/12 02:40:07;;;;;;;;;;;7.60;99.90;;;;;;5074536;28;19916;-59
2021/12/12 02:42:32;;;;;;;;;;;7.60;99.90;;;;;;5075493;28;19958;-58
2021/12/12 02:45:00;;;;;;;;;;;7.60;99.90;;;;;;5075807;28;20579;-58
2021/12/12 02:47:33;;;;;;;;;;;7.60;99.90;;;;;;5075492;28;20027;-60
2021/12/12 02:50:10;;;;;;;;;;;7.70;99.90;;;;;;5076480;28;19915;-60
2021/12/12 02:52:37;;;;;;;;;;;7.70;99.90;;;;;;5074381;28;19912;-58
2021/12/12 02:55:14;;;;;;;;;;;7.70;99.90;;;;;;5074717;28;20049;-58
2021/12/12 02:57:40;;;;;;;;;;;7.70;99.90;;;;;;5069533;28;20020;-56
2021/12/12 03:00:07;;;;;;;;;;;7.70;99.90;;;;;;5075605;28;20007;-59
2021/12/12 03:02:40;;;;;;;;;;;7.70;99.90;;;;;;5075575;28;19916;-59
2021/12/12 03:05:07;;;;;;;;;;;7.70;99.90;;;;;;5075777;28;19974;-59
2021/12/12 03:07:33;;;;;;;;;;;7.70;99.90;;;;;;5075389;28;20377;-60
2021/12/12 03:09:58;;;;;;;;;;;7.70;99.90;;;;;;5073314;28;19912;-58
2021/12/12 03:12:31;;;;;;;;;;;7.70;99.90;;;;;;5076242;28;20315;-58
2021/12/12 03:14:58;;;;;;;;;;;7.80;99.90;;;;;;5075225;28;19920;-59
2021/12/12 03:17:24;;;;;;;;;;;7.70;99.90;;;;;;5075180;28;19916;-60
2021/12/12 03:19:52;;;;;;;;;;;7.80;99.90;;;;;;5075813;28;19958;-58
2021/12/12 03:22:18;;;;;;;;;;;7.80;99.90;;;;;;5075233;28;19965;-60
2021/12/12 03:24:44;;;;;;;;;;;7.80;99.90;;;;;;5073047;28;19928;-58
2021/12/12 03:27:10;;;;;;;;;;;7.80;99.90;;;;;;5075961;28;19908;-57
2021/12/12 03:29:36;;;;;;;;;;;7.80;99.90;;;;;;5075003;28;20687;-59
2021/12/12 03:32:07;;;;;;;;;;;7.90;99.90;;;;;;5073586;28;19940;-60
2021/12/12 03:34:34;;;;;;;;;;;7.80;99.90;;;;;;5074273;28;19917;-60
2021/12/12 03:37:01;;;;;;;;;;;7.80;99.90;;;;;;5072975;28;20289;-59
2021/12/12 03:39:30;;;;;;;;;;;7.80;99.90;;;;;;5074764;28;19916;-59
2021/12/12 03:41:58;;;;;;;;;;;7.90;99.90;;;;;;5074664;28;19977;-59
2021/12/12 03:44:25;;;;;;;;;;;7.90;99.90;;;;;;5074669;28;20389;-58
2021/12/12 03:46:55;;;;;;;;;;;7.90;99.90;;;;;;5063760;28;19920;-60
2021/12/12 03:49:21;;;;;;;;;;;7.90;99.90;;;;;;5074670;28;19924;-57
2021/12/12 03:51:47;;;;;;;;;;;7.90;99.90;;;;;;5072345;28;19915;-59
2021/12/12 03:54:13;;;;;;;;;;;7.90;99.90;;;;;;5075244;28;20278;-59
2021/12/12 03:56:39;;;;;;;;;;;7.90;99.90;;;;;;5074788;28;19917;-59
2021/12/12 03:59:05;;;;;;;;;;;7.90;99.90;;;;;;5074495;28;20064;-59
2021/12/12 04:01:33;;;;;;;;;;;8.00;99.90;;;;;;5074755;28;20403;-58
2021/12/12 04:04:05;;;;;;;;;;;8.00;99.90;;;;;;5072183;28;20265;-59
2021/12/12 04:06:31;;;;;;;;;;;8.00;99.90;;;;;;5073915;28;19928;-59
2021/12/12 04:08:57;;;;;;;;;;;7.90;99.90;;;;;;5074193;28;19927;-58
2021/12/12 04:11:29;;;;;;;;;;;8.00;99.90;;;;;;5072434;28;19966;-58
2021/12/12 04:13:55;;;;;;;;;;;8.00;99.90;;;;;;5072964;28;19919;-57
2021/12/12 04:16:21;;;;;;;;;;;7.90;99.90;;;;;;5074331;28;20000;-58
2021/12/12 04:18:46;;;;;;;;;;;8.00;99.90;;;;;;5071250;28;19996;-59
2021/12/12 04:21:12;;;;;;;;;;;8.00;99.90;;;;;;5074571;28;19908;-60
2021/12/12 04:23:39;;;;;;;;;;;8.00;99.90;;;;;;5074361;28;20284;-56
2021/12/12 04:26:12;;;;;;;;;;;8.00;99.90;;;;;;5073754;28;19916;-58
2021/12/12 04:28:38;;;;;;;;;;;8.00;99.90;;;;;;5073988;28;20435;-59
2021/12/12 04:31:04;;;;;;;;;;;8.00;99.90;;;;;;5072439;28;19924;-56
2021/12/12 04:33:29;;;;;;;;;;;8.00;99.90;;;;;;5073297;28;19908;-57
2021/12/12 04:35:55;;;;;;;;;;;8.00;99.90;;;;;;5073951;28;20067;-59
2021/12/12 04:38:22;;;;;;;;;;;8.10;99.90;;;;;;5072008;28;19912;-58
2021/12/12 04:40:47;;;;;;;;;;;8.10;99.90;;;;;;5074209;28;19951;-59
2021/12/12 04:43:13;;;;;;;;;;;8.00;99.90;;;;;;5073676;28;19956;-60
2021/12/12 04:46:05;;;;;;;;;;;8.10;99.90;;;;;;5072054;28;19919;-59
2021/12/12 04:51:38;;;;;;;;;;;8.10;99.90;;;;;;5070145;28;20015;-58
2021/12/12 04:54:12;;;;;;;;;;;8.10;99.90;;;;;;5071960;28;19912;-60
2021/12/12 04:57:07;;;;;;;;;;;8.10;99.90;;;;;;5073358;28;20003;-61
2021/12/12 04:59:35;;;;;;;;;;;8.10;99.90;;;;;;5060372;28;19912;-59
2021/12/12 05:02:08;;;;;;;;;;;8.10;99.90;;;;;;5061660;28;19919;-57
2021/12/12 05:04:45;;;;;;;;;;;8.10;99.90;;;;;;5073695;28;19916;-59
2021/12/12 05:07:13;;;;;;;;;;;8.10;99.90;;;;;;5072970;28;19920;-59
2021/12/12 05:09:42;;;;;;;;;;;8.10;99.90;;;;;;5071849;28;19923;-59
2021/12/12 05:12:13;;;;;;;;;;;8.10;99.90;;;;;;5073073;28;19912;-58
2021/12/12 05:14:40;;;;;;;;;;;8.10;99.90;;;;;;5073529;28;20007;-60
2021/12/12 05:17:09;;;;;;;;;;;8.10;99.90;;;;;;5072713;28;20358;-58
2021/12/12 05:19:37;;;;;;;;;;;8.10;99.90;;;;;;5073381;28;19920;-57
2021/12/12 05:22:10;;;;;;;;;;;8.10;99.90;;;;;;5052524;28;19974;-59
2021/12/12 05:24:37;;;;;;;;;;;8.10;99.90;;;;;;5071445;28;20389;-58
2021/12/12 05:27:10;;;;;;;;;;;8.20;99.90;;;;;;5073143;28;19999;-58
2021/12/12 05:29:43;;;;;;;;;;;8.20;99.90;;;;;;5072071;28;20377;-60
2021/12/12 05:32:09;;;;;;;;;;;8.20;99.90;;;;;;5071479;28;19920;-59
2021/12/12 05:34:37;;;;;;;;;;;8.20;99.90;;;;;;5073215;28;19931;-58
2021/12/12 05:37:03;;;;;;;;;;;8.20;99.90;;;;;;5071572;28;19947;-59
2021/12/12 05:39:30;;;;;;;;;;;8.20;99.90;;;;;;5072390;28;20280;-58
2021/12/12 05:41:56;;;;;;;;;;;8.20;99.90;;;;;;5072553;28;20578;-58
2021/12/12 05:44:22;;;;;;;;;;;8.20;99.90;;;;;;5072666;28;20349;-59
2021/12/12 05:46:48;;;;;;;;;;;8.20;99.90;;;;;;5072450;28;19916;-60
2021/12/12 05:49:14;;;;;;;;;;;8.20;99.90;;;;;;5073110;28;19927;-60
2021/12/12 05:51:39;;;;;;;;;;;8.30;99.90;;;;;;5071163;28;19969;-59
2021/12/12 05:54:05;;;;;;;;;;;8.30;99.90;;;;;;5073099;28;19955;-59
2021/12/12 05:56:33;;;;;;;;;;;8.30;99.90;;;;;;5072473;28;19908;-58
2021/12/12 05:58:58;;;;;;;;;;;8.30;99.90;;;;;;5072839;28;19924;-59
2021/12/12 06:01:25;;;;;;;;;;;8.30;99.90;;;;;;5072447;28;19916;-59
2021/12/12 06:03:51;;;;;;;;;;;8.30;99.90;;;;;;5071209;28;19915;-58
2021/12/12 06:06:18;;;;;;;;;;;8.30;99.90;;;;;;5071504;28;20019;-58
2021/12/12 06:08:44;;;;;;;;;;;8.30;99.90;;;;;;5071350;28;19960;-59
2021/12/12 06:11:11;;;;;;;;;;;8.30;99.90;;;;;;5071223;28;20356;-58
2021/12/12 06:13:37;;;;;;;;;;;8.40;99.90;;;;;;5072766;28;20015;-59
2021/12/12 06:16:03;;;;;;;;;;;8.30;99.90;;;;;;5071095;28;19969;-57
2021/12/12 06:18:30;;;;;;;;;;;8.40;99.90;;;;;;5054218;28;20377;-58
2021/12/12 06:20:56;;;;;;;;;;;8.40;99.90;;;;;;5072459;28;20089;-59
2021/12/12 06:23:22;;;;;;;;;;;8.40;99.90;;;;;;5072644;28;19958;-59
2021/12/12 06:25:49;;;;;;;;;;;8.40;99.90;;;;;;5072419;28;20385;-59
2021/12/12 06:28:16;;;;;;;;;;;8.40;99.90;;;;;;5072680;28;20496;-59
2021/12/12 06:30:41;;;;;;;;;;;8.30;99.90;;;;;;5065835;28;19913;-60
2021/12/12 06:33:08;;;;;;;;;;;8.40;99.90;;;;;;5073089;28;20335;-59
2021/12/12 06:35:34;;;;;;;;;;;8.30;99.90;;;;;;5076179;28;19916;-59
2021/12/12 06:38:01;;;;;;;;;;;8.40;99.90;;;;;;5058193;28;19918;-58
2021/12/12 06:40:27;;;;;;;;;;;8.40;99.90;;;;;;5076200;28;19974;-59
2021/12/12 06:42:54;;;;;;;;;;;8.30;99.90;;;;;;5073855;28;19961;-59
2021/12/12 06:45:20;;;;;;;;;;;8.30;99.90;;;;;;5075782;28;19962;-59
2021/12/12 06:47:45;;;;;;;;;;;8.30;99.90;;;;;;5074508;28;19917;-59
2021/12/12 06:50:11;;;;;;;;;;;8.40;99.90;;;;;;5074555;28;19955;-59
2021/12/12 06:52:37;;;;;;;;;;;8.40;99.90;;;;;;5058291;28;19919;-58
2021/12/12 06:55:07;;;;;;;;;;;8.40;99.90;;;;;;5073767;28;20385;-59
2021/12/12 06:57:33;;;;;;;;;;;8.40;99.90;;;;;;5074960;28;19912;-58
2021/12/12 06:59:58;;;;;;;;;;;8.40;99.90;;;;;;5075347;28;19912;-59
2021/12/12 07:02:24;;;;;;;;;;;8.50;99.90;;;;;;5057869;28;19917;-60
2021/12/12 07:04:50;;;;;;;;;;;8.40;99.90;;;;;;5075684;28;20411;-59
2021/12/12 07:07:16;;;;;;;;;;;8.40;99.90;;;;;;5075174;28;19935;-59
2021/12/12 07:09:43;;;;;;;;;;;8.50;99.90;;;;;;5073393;28;20030;-59
2021/12/12 07:12:10;;;;;;;;;;;8.50;99.90;;;;;;5074794;28;19916;-58
2021/12/12 07:14:37;;;;;;;;;;;8.50;99.90;;;;;;5075091;28;19912;-59
2021/12/12 07:17:02;;;;;;;;;;;8.50;99.90;;;;;;5074940;28;19912;-59
2021/12/12 07:19:28;;;;;;;;;;;8.50;99.90;;;;;;5074823;28;20330;-58
2021/12/12 07:21:54;;;;;;;;;;;8.50;99.90;;;;;;5072896;28;19916;-55
2021/12/12 07:24:21;;;;;;;;;;;8.60;99.90;;;;;;5074959;28;19915;-58
2021/12/12 07:26:47;;;;;;;;;;;8.60;99.90;;;;;;5073493;28;19916;-58
2021/12/12 07:29:13;;;;;;;;;;;8.60;99.90;;;;;;5072929;28;19921;-56
2021/12/12 07:31:39;;;;;;;;;;;8.60;99.90;;;;;;5075042;28;19919;-58
2021/12/12 07:34:07;;;;;;;;;;;8.60;99.90;;;;;;5073236;28;20344;-57
2021/12/12 07:36:34;;;;;;;;;;;8.70;99.90;;;;;;5073696;28;19912;-58
2021/12/12 07:39:03;;;;;;;;;;;8.70;99.90;;;;;;5074310;28;19935;-57
2021/12/12 07:41:30;;;;;;;;;;;8.70;99.90;;;;;;5074032;28;19924;-57
2021/12/12 07:43:56;;;;;;;;;;;8.70;99.90;;;;;;5074424;28;19948;-57
2021/12/12 07:46:22;;;;;;;;;;;8.70;99.90;;;;;;5073339;28;20415;-57
2021/12/12 07:48:50;;;;;;;;;;;8.70;99.90;;;;;;5071752;28;19955;-58
2021/12/12 07:51:16;;;;;;;;;;;8.70;99.90;;;;;;5075115;28;19908;-58
2021/12/12 07:53:42;;;;;;;;;;;8.70;99.90;;;;;;5074051;28;20003;-57
2021/12/12 07:56:08;;;;;;;;;;;8.70;99.90;;;;;;5073587;28;20091;-57
2021/12/12 07:58:34;;;;;;;;;;;8.70;99.90;;;;;;5074426;28;19912;-58
2021/12/12 08:01:00;;;;;;;;;;;8.70;99.90;;;;;;5072109;28;19943;-57
2021/12/12 08:03:27;;;;;;;;;;;8.80;99.90;;;;;;5074147;28;20464;-58
2021/12/12 08:05:53;;;;;;;;;;;8.70;99.90;;;;;;5072828;28;19927;-60
2021/12/12 08:08:19;;;;;;;;;;;8.70;99.90;;;;;;5072417;28;19920;-57
2021/12/12 08:10:46;;;;;;;;;;;8.80;99.90;;;;;;5074003;28;20380;-57
2021/12/12 08:13:13;;;;;;;;;;;8.80;99.90;;;;;;5072745;28;19932;-56
2021/12/12 08:15:39;;;;;;;;;;;8.80;99.90;;;;;;5070096;28;19928;-57
2021/12/12 08:18:06;;;;;;;;;;;8.90;99.90;;;;;;5072652;28;19917;-62
2021/12/12 08:20:32;;;;;;;;;;;8.90;99.90;;;;;;5066667;28;20407;-63
2021/12/12 08:22:58;;;;;;;;;;;8.90;99.90;;;;;;5058945;28;19917;-58
2021/12/12 08:25:25;;;;;;;;;;;8.90;99.90;;;;;;5069280;28;20019;-58
2021/12/12 08:27:51;;;;;;;;;;;9.00;99.90;;;;;;5071030;28;19909;-58
2021/12/12 08:30:17;;;;;;;;;;;9.00;99.90;;;;;;5069276;28;19917;-58
2021/12/12 08:32:45;;;;;;;;;;;9.00;99.90;;;;;;5065548;28;19913;-59
2021/12/12 08:35:12;;;;;;;;;;;9.00;99.90;;;;;;5070036;28;19919;-58
2021/12/12 08:37:38;;;;;;;;;;;9.00;99.90;;;;;;5067255;28;19920;-59
2021/12/12 08:40:05;;;;;;;;;;;9.10;99.90;;;;;;5056754;28;19915;-59
2021/12/12 08:42:30;;;;;;;;;;;9.10;99.90;;;;;;5061597;28;19962;-59
2021/12/12 08:44:57;;;;;;;;;;;9.10;99.90;;;;;;5065815;28;20005;-58
2021/12/12 08:47:23;;;;;;;;;;;9.10;99.90;;;;;;5067956;28;20357;-58
2021/12/12 08:49:48;;;;;;;;;;;9.10;99.90;;;;;;5064630;28;19927;-59
2021/12/12 08:52:16;;;;;;;;;;;9.10;99.90;;;;;;5068879;28;19913;-59
2021/12/12 08:54:43;;;;;;;;;;;9.10;99.90;;;;;;5066631;28;19916;-58
2021/12/12 08:57:32;;;;;;;;;;;9.20;99.90;;;;;;5067252;28;20421;-59
2021/12/12 08:59:59;;;;;;;;;;;9.20;99.90;;;;;;5067832;28;19916;-58
2021/12/12 09:02:25;;;;;;;;;;;9.30;99.90;;;;;;5068221;28;19917;-59
2021/12/12 09:04:53;;;;;;;;;;;9.30;99.90;;;;;;5067416;28;19930;-58
2021/12/12 09:07:27;;;;;;;;;;;9.30;99.90;;;;;;5066945;28;19923;-59
2021/12/12 09:09:58;;;;;;;;;;;9.40;99.90;;;;;;5067872;28;19925;-59
2021/12/12 09:12:34;;;;;;;;;;;9.40;99.90;;;;;;5069429;28;20004;-57
2021/12/12 09:15:18;;;;;;;;;;;9.50;99.90;;;;;;5067579;28;19919;-58
2021/12/12 09:17:45;;;;;;;;;;;9.40;99.90;;;;;;5066343;28;19912;-57
2021/12/12 09:20:18;;;;;;;;;;;9.50;99.90;;;;;;5066240;28;19920;-58
2021/12/12 09:23:00;;;;;;;;;;;9.50;99.90;;;;;;5068046;28;19912;-57
2021/12/12 09:25:51;;;;;;;;;;;9.50;99.90;;;;;;5068458;28;19919;-58
2021/12/12 09:28:16;;;;;;;;;;;9.50;99.90;;;;;;5065994;28;19944;-57
2021/12/12 09:30:42;;;;;;;;;;;9.60;99.90;;;;;;5068243;28;19912;-58
2021/12/12 09:33:17;;;;;;;;;;;9.70;99.90;;;;;;5068436;28;19919;-58
2021/12/12 09:35:54;;;;;;;;;;;9.70;99.90;;;;;;5067861;28;20361;-59
2021/12/12 09:38:30;;;;;;;;;;;9.70;99.90;;;;;;5066664;28;19963;-58
2021/12/12 09:41:04;;;;;;;;;;;9.80;99.90;;;;;;5067585;28;20392;-56
2021/12/12 09:43:29;;;;;;;;;;;9.80;99.90;;;;;;5064665;28;20342;-57
2021/12/12 09:46:07;;;;;;;;;;;9.80;99.90;;;;;;5068129;28;19912;-58
2021/12/12 09:51:54;;;;;;;;;;;9.90;99.90;;;;;;5068883;28;19958;-57
2021/12/12 09:54:22;;;;;;;;;;;9.90;99.90;;;;;;5069179;28;20003;-57
2021/12/12 09:57:03;;;;;;;;;;;10.00;99.90;;;;;;5067591;28;20022;-57
2021/12/12 09:59:42;;;;;;;;;;;10.00;99.90;;;;;;5066459;28;20384;-57
2021/12/12 10:02:08;;;;;;;;;;;10.00;99.90;;;;;;5067779;28;19912;-58
2021/12/12 10:04:48;;;;;;;;;;;10.00;99.90;;;;;;5067441;28;20385;-57
2021/12/12 10:07:17;;;;;;;;;;;10.10;99.90;;;;;;5065672;28;19969;-57
2021/12/12 10:09:47;;;;;;;;;;;10.20;99.90;;;;;;5070547;28;19973;-56
2021/12/12 10:12:15;;;;;;;;;;;10.20;99.90;;;;;;5071729;28;19913;-57
2021/12/12 10:14:58;;;;;;;;;;;10.30;99.90;;;;;;5071801;28;20430;-58
2021/12/12 10:17:42;;;;;;;;;;;10.30;99.90;;;;;;5071436;28;19920;-57
2021/12/12 10:20:08;;;;;;;;;;;10.30;99.90;;;;;;5071150;28;19919;-58
2021/12/12 10:22:46;;;;;;;;;;;10.30;99.90;;;;;;5070973;28;20007;-58
2021/12/12 10:25:15;;;;;;;;;;;10.30;99.90;;;;;;5071001;28;19912;-57
2021/12/12 10:27:53;;;;;;;;;;;10.40;99.90;;;;;;5073172;28;19974;-58
2021/12/12 10:30:26;;;;;;;;;;;10.40;99.90;;;;;;5071790;28;19924;-58
2021/12/12 10:33:09;;;;;;;;;;;10.50;99.90;;;;;;5070312;28;19924;-57
2021/12/12 10:35:53;;;;;;;;;;;10.50;99.90;;;;;;5067890;28;19924;-58
2021/12/12 10:38:21;;;;;;;;;;;10.50;99.90;;;;;;5071295;28;20373;-57
2021/12/12 10:40:56;;;;;;;;;;;10.60;99.90;;;;;;5071271;28;19912;-57
2021/12/12 10:43:27;;;;;;;;;;;10.60;99.90;;;;;;5070369;28;20365;-58
2021/12/12 10:45:57;;;;;;;;;;;10.70;99.90;;;;;;5071052;28;20274;-58
2021/12/12 10:48:28;;;;;;;;;;;10.70;99.90;;;;;;5072064;28;19963;-58
2021/12/12 10:51:10;;;;;;;;;;;10.70;99.90;;;;;;5053353;28;20002;-57
2021/12/12 10:53:35;;;;;;;;;;;10.70;99.90;;;;;;5068073;28;19973;-57
2021/12/12 10:56:06;;;;;;;;;;;10.70;99.90;;;;;;5070750;28;20409;-58
2021/12/12 10:58:34;;;;;;;;;;;10.70;99.90;;;;;;5067596;28;19932;-58
2021/12/12 11:01:07;;;;;;;;;;;10.70;99.90;;;;;;5071522;28;19916;-57
2021/12/12 11:03:37;;;;;;;;;;;10.70;99.90;;;;;;5072820;28;19912;-58
2021/12/12 11:06:08;;;;;;;;;;;10.70;99.90;;;;;;5070277;28;19959;-58
2021/12/12 11:08:42;;;;;;;;;;;10.80;99.90;;;;;;5067399;28;20351;-58
2021/12/12 11:11:13;;;;;;;;;;;10.80;99.90;;;;;;5070103;28;20400;-58
2021/12/12 11:13:49;;;;;;;;;;;10.80;99.90;;;;;;5069795;28;20391;-57
2021/12/12 11:16:20;;;;;;;;;;;10.80;99.90;;;;;;5071175;28;19917;-57
2021/12/12 11:18:50;;;;;;;;;;;10.90;99.90;;;;;;5071012;28;19916;-60
2021/12/12 11:21:25;;;;;;;;;;;10.90;99.90;;;;;;5070192;28;19912;-58
2021/12/12 11:24:01;;;;;;;;;;;11.00;99.90;;;;;;5070311;28;20003;-60
2021/12/12 11:26:56;;;;;;;;;;;11.00;99.90;;;;;;5070539;28;20450;-58
2021/12/12 11:29:27;;;;;;;;;;;11.00;99.90;;;;;;5055969;28;19928;-58
2021/12/12 11:31:58;;;;;;;;;;;11.10;99.90;;;;;;5070149;28;19999;-58
2021/12/12 11:34:24;;;;;;;;;;;11.10;99.90;;;;;;5069600;28;19925;-60
2021/12/12 11:37:08;;;;;;;;;;;11.10;99.90;;;;;;5071156;28;19912;-58
2021/12/12 11:39:46;;;;;;;;;;;11.10;99.90;;;;;;5070214;28;20456;-58
2021/12/12 11:42:11;;;;;;;;;;;11.20;99.90;;;;;;5069581;28;19913;-57
2021/12/12 11:44:41;;;;;;;;;;;11.20;99.90;;;;;;5069224;28;19919;-58
2021/12/12 11:47:12;;;;;;;;;;;11.30;99.90;;;;;;5068667;28;19912;-57
2021/12/12 11:49:41;;;;;;;;;;;11.30;99.90;;;;;;5048443;28;20007;-58
2021/12/12 11:52:12;;;;;;;;;;;11.30;99.90;;;;;;5068551;28;19966;-57
2021/12/12 11:54:47;;;;;;;;;;;11.30;99.90;;;;;;5070563;28;20400;-58
2021/12/12 11:57:30;;;;;;;;;;;11.30;99.90;;;;;;5068965;28;19916;-57
2021/12/12 12:00:16;;;;;;;;;;;11.30;99.90;;;;;;5068940;28;19916;-60
2021/12/12 12:02:50;;;;;;;;;;;11.30;99.90;;;;;;5066857;28;19916;-59
2021/12/12 12:05:37;;;;;;;;;;;11.30;99.90;;;;;;5067461;28;20393;-59
2021/12/12 12:08:18;;;;;;;;;;;11.40;99.90;;;;;;5068450;28;20039;-60
2021/12/12 12:11:15;;;;;;;;;;;11.30;99.90;;;;;;5067041;28;20416;-60
2021/12/12 12:13:49;;;;;;;;;;;11.40;99.90;;;;;;4970071;28;19915;-60
2021/12/12 12:16:14;;;;;;;;;;;11.50;99.90;;;;;;4967559;28;19918;-59
2021/12/12 12:18:42;;;;;;;;;;;11.50;99.90;;;;;;4972879;28;20395;-59
2021/12/12 12:21:28;;;;;;;;;;;11.60;99.90;;;;;;4971752;28;19926;-59
2021/12/12 12:26:51;;;;;;;;;;;11.60;99.90;;;;;;4971393;28;19996;-59
2021/12/12 12:29:28;;;;;;;;;;;11.50;99.90;;;;;;4969923;28;19925;-60
2021/12/12 12:32:12;;;;;;;;;;;11.60;99.90;;;;;;4969084;28;19918;-59
2021/12/12 12:34:41;;;;;;;;;;;11.70;99.90;;;;;;4968825;28;19944;-60
2021/12/12 12:37:25;;;;;;;;;;;11.70;99.90;;;;;;4969601;28;19914;-59
2021/12/12 12:40:09;;;;;;;;;;;11.90;99.90;;;;;;4970893;28;19915;-58
2021/12/12 12:42:54;;;;;;;;;;;12.00;99.90;;;;;;4973200;28;19996;-60
2021/12/12 12:45:38;;;;;;;;;;;12.20;99.90;;;;;;4971485;28;19960;-59
2021/12/12 12:48:13;;;;;;;;;;;12.20;99.90;;;;;;4970770;28;19914;-59
2021/12/12 12:50:42;;;;;;;;;;;12.30;99.90;;;;;;5065336;28;19947;-59
2021/12/12 12:53:08;;;;;;;;;;;12.20;99.90;;;;;;5065273;28;19916;-59
2021/12/12 12:55:46;;;;;;;;;;;12.20;99.90;;;;;;5067638;28;20011;-57
2021/12/12 12:58:21;;;;;;;;;;;12.10;99.90;;;;;;5067204;28;20011;-58
2021/12/12 13:00:48;;;;;;;;;;;12.10;99.90;;;;;;5067741;28;19916;-57
2021/12/12 13:03:13;;;;;;;;;;;12.10;99.90;;;;;;5067921;28;20478;-58
2021/12/12 13:05:57;;;;;;;;;;;12.00;99.90;;;;;;5067546;28;20473;-57
2021/12/12 13:08:41;;;;;;;;;;;12.00;99.90;;;;;;5067932;28;19970;-58
2021/12/12 13:11:10;;;;;;;;;;;12.00;99.90;;;;;;5066212;28;20300;-59
2021/12/12 13:13:45;;;;;;;;;;;12.00;99.90;;;;;;5067846;28;19960;-56
2021/12/12 13:16:33;;;;;;;;;;;12.00;99.90;;;;;;5067609;28;19920;-57
2021/12/12 13:19:03;;;;;;;;;;;12.00;99.90;;;;;;5006391;28;20427;-59
2021/12/12 13:21:36;;;;;;;;;;;12.00;99.90;;;;;;5007771;28;19924;-58
2021/12/12 13:24:07;;;;;;;;;;;11.90;99.90;;;;;;5005411;28;19913;-58
2021/12/12 13:26:47;;;;;;;;;;;11.90;99.90;;;;;;5002176;28;19914;-58
2021/12/12 13:29:50;;;;;;;;;;;11.90;99.90;;;;;;5005129;28;19926;-59
2021/12/12 13:32:17;;;;;;;;;;;11.90;99.90;;;;;;4985066;28;20405;-59
2021/12/12 13:35:01;;;;;;;;;;;11.90;99.90;;;;;;4986708;28;19992;-59
2021/12/12 13:37:27;;;;;;;;;;;11.90;99.90;;;;;;4987098;28;20062;-58
2021/12/12 13:39:59;;;;;;;;;;;11.90;99.90;;;;;;4986832;28;20792;-57
2021/12/12 13:42:33;;;;;;;;;;;11.90;99.90;;;;;;4987270;28;19984;-57
2021/12/12 13:45:10;;;;;;;;;;;11.90;99.90;;;;;;4970496;28;20290;-56
2021/12/12 13:47:36;;;;;;;;;;;11.90;99.90;;;;;;4983857;28;19997;-57
2021/12/12 13:50:01;;;;;;;;;;;11.90;99.90;;;;;;4986372;28;20005;-59
2021/12/12 13:52:37;;;;;;;;;;;11.90;99.90;;;;;;4987156;28;19914;-58
2021/12/12 13:55:12;;;;;;;;;;;11.90;99.90;;;;;;4992789;28;19945;-58
2021/12/12 13:57:56;;;;;;;;;;;11.90;99.90;;;;;;5045642;28;19920;-58
2021/12/12 14:00:25;;;;;;;;;;;11.90;99.90;;;;;;5045636;28;19927;-59
2021/12/12 14:03:15;;;;;;;;;;;11.80;99.90;;;;;;5045947;28;20003;-58
2021/12/12 14:05:44;;;;;;;;;;;11.80;99.90;;;;;;5050026;28;19921;-59
2021/12/12 14:08:09;;;;;;;;;;;11.80;99.90;;;;;;5067653;28;20378;-59
2021/12/12 14:10:37;;;;;;;;;;;11.80;99.90;;;;;;5067684;28;19927;-59
2021/12/12 14:13:05;;;;;;;;;;;11.70;99.90;;;;;;5066977;28;19916;-59
2021/12/12 14:15:33;;;;;;;;;;;11.80;99.90;;;;;;5067628;28;19920;-58
2021/12/12 14:18:00;;;;;;;;;;;11.70;99.90;;;;;;5067584;28;20007;-59
2021/12/12 14:20:43;;;;;;;;;;;11.70;99.90;;;;;;5068275;28;20007;-59
2021/12/12 14:23:11;;;;;;;;;;;11.70;99.90;;;;;;5067001;28;19958;-60
2021/12/12 14:25:37;;;;;;;;;;;11.60;99.90;;;;;;5067391;28;19919;-63
2021/12/12 14:28:03;;;;;;;;;;;11.60;99.90;;;;;;5066732;28;19922;-59
2021/12/12 14:30:33;;;;;;;;;;;11.60;99.90;;;;;;5069606;28;19924;-58
2021/12/12 14:33:03;;;;;;;;;;;11.60;99.90;;;;;;5067592;28;19912;-58
2021/12/12 14:35:32;;;;;;;;;;;11.60;99.90;;;;;;5067331;28;20415;-58
2021/12/12 14:37:58;;;;;;;;;;;11.60;99.90;;;;;;5067366;28;19917;-58
2021/12/12 14:40:34;;;;;;;;;;;11.60;99.90;;;;;;5067849;28;19919;-58
2021/12/12 14:43:04;;;;;;;;;;;11.60;99.90;;;;;;5067830;28;19919;-59
2021/12/12 14:45:34;;;;;;;;;;;11.60;99.90;;;;;;5067081;28;20011;-59
2021/12/12 14:48:03;;;;;;;;;;;11.60;99.90;;;;;;5067328;28;19920;-58
2021/12/12 14:50:31;;;;;;;;;;;11.60;99.90;;;;;;5066701;28;19955;-57
2021/12/12 14:52:59;;;;;;;;;;;11.60;99.90;;;;;;5067261;28;19962;-59
2021/12/12 14:55:27;;;;;;;;;;;11.60;99.90;;;;;;5069591;28;19936;-57
2021/12/12 14:58:01;;;;;;;;;;;11.50;99.90;;;;;;5070915;28;19912;-58
2021/12/12 15:00:30;;;;;;;;;;;11.50;99.90;;;;;;5072725;28;20002;-59
2021/12/12 15:02:57;;;;;;;;;;;11.50;99.90;;;;;;5070134;28;19963;-58
2021/12/12 15:05:27;;;;;;;;;;;11.50;99.90;;;;;;5070249;28;19936;-58
2021/12/12 15:07:56;;;;;;;;;;;11.50;99.90;;;;;;5070739;28;19920;-59